createdAt,value
2023-06-19T00:01:10.550Z,57.06
2023-06-19T00:03:37.697Z,57.63
2023-06-19T00:06:06.762Z,57.23
2023-06-19T00:08:33.691Z,57.72
2023-06-19T00:11:00.497Z,57.37
2023-06-19T00:13:27.439Z,57.39
2023-06-19T00:15:54.447Z,58.35
2023-06-19T00:18:21.321Z,57.91
2023-06-19T00:20:48.520Z,58.41
2023-06-19T00:23:18.175Z,57.93
2023-06-19T00:25:45.779Z,56.92
2023-06-19T00:28:16.113Z,57.59
2023-06-19T00:30:43.151Z,58.75
2023-06-19T00:33:10.640Z,58.36
2023-06-19T00:35:37.827Z,57.36
2023-06-19T00:38:06.554Z,57.57
2023-06-19T00:40:35.163Z,57.79
2023-06-19T00:43:02.335Z,58.29
2023-06-19T00:45:29.646Z,58.25
2023-06-19T00:47:58.702Z,58.10
2023-06-19T00:50:27.037Z,58.43
2023-06-19T00:52:54.379Z,58.66
2023-06-19T00:55:23.145Z,58.21
2023-06-19T00:57:51.271Z,58.01
2023-06-19T01:00:19.134Z,58.42
2023-06-19T01:02:48.230Z,58.93
2023-06-19T01:05:16.352Z,58.33
2023-06-19T01:07:46.942Z,57.35
2023-06-19T01:10:21.413Z,57.34
2023-06-19T01:13:01.503Z,56.84
2023-06-19T01:15:28.643Z,57.44
2023-06-19T01:17:57.586Z,57.17
2023-06-19T01:20:25.961Z,57.47
2023-06-19T01:22:53.201Z,56.75
2023-06-19T01:25:20.091Z,57.84
2023-06-19T01:27:48.332Z,57.33
2023-06-19T01:30:15.510Z,57.60
2023-06-19T01:32:42.386Z,57.76
2023-06-19T01:35:10.920Z,57.27
2023-06-19T01:37:39.433Z,57.09
2023-06-19T01:40:10.979Z,58.43
2023-06-19T01:42:42.221Z,58.12
2023-06-19T01:45:09.804Z,58.42
2023-06-19T01:47:37.007Z,57.61
2023-06-19T01:50:04.110Z,57.10
2023-06-19T01:52:31.283Z,56.87
2023-06-19T01:54:58.160Z,57.11
2023-06-19T01:57:25.228Z,57.34
2023-06-19T01:59:52.074Z,57.11
2023-06-19T02:02:18.929Z,57.21
2023-06-19T02:04:45.790Z,56.99
2023-06-19T02:07:12.778Z,56.80
2023-06-19T02:09:40.600Z,57.31
2023-06-19T02:12:08.407Z,56.67
2023-06-19T02:14:35.329Z,57.12
2023-06-19T02:17:02.173Z,57.12
2023-06-19T02:19:29.078Z,57.47
2023-06-19T02:21:56.076Z,57.38
2023-06-19T02:24:26.474Z,57.55
2023-06-19T02:26:53.860Z,57.26
2023-06-19T02:29:21.349Z,57.91
2023-06-19T02:31:48.258Z,58.28
2023-06-19T02:34:15.268Z,58.48
2023-06-19T02:36:42.232Z,58.49
2023-06-19T02:39:10.298Z,58.89
2023-06-19T02:41:39.329Z,58.63
2023-06-19T02:44:06.250Z,58.31
2023-06-19T02:46:33.632Z,58.14
2023-06-19T02:49:02.017Z,58.52
2023-06-19T02:51:28.954Z,57.89
2023-06-19T02:53:56.119Z,57.78
2023-06-19T02:56:24.173Z,58.84
2023-06-19T02:58:51.047Z,58.75
2023-06-19T03:01:18.426Z,58.73
2023-06-19T03:03:47.807Z,58.61
2023-06-19T03:06:14.858Z,59.60
2023-06-19T03:08:41.986Z,59.44
2023-06-19T03:11:08.837Z,60.13
2023-06-19T03:13:51.374Z,60.84
2023-06-19T03:16:20.524Z,59.42
2023-06-19T03:18:51.745Z,59.63
2023-06-19T03:21:21.430Z,59.36
2023-06-19T03:23:50.024Z,59.80
2023-06-19T03:26:22.962Z,60.55
2023-06-19T03:28:49.817Z,59.27
2023-06-19T03:31:16.971Z,59.30
2023-06-19T03:33:44.474Z,60.64
2023-06-19T03:36:11.851Z,61.04
2023-06-19T03:38:49.300Z,61.78
2023-06-19T03:41:19.774Z,62.87
2023-06-19T03:43:47.670Z,61.54
2023-06-19T03:46:15.305Z,62.87
2023-06-19T03:48:42.313Z,62.58
2023-06-19T03:51:09.297Z,63.62
2023-06-19T03:53:36.171Z,62.63
2023-06-19T03:56:03.207Z,62.82
2023-06-19T03:58:30.203Z,63.11
2023-06-19T04:00:57.072Z,61.36
2023-06-19T04:03:24.287Z,61.61
2023-06-19T04:05:51.759Z,61.84
2023-06-19T04:08:18.805Z,61.81
2023-06-19T04:10:45.747Z,60.55
2023-06-19T04:13:13.109Z,61.48
2023-06-19T04:15:40.373Z,62.78
2023-06-19T04:18:07.337Z,61.42
2023-06-19T04:20:35.152Z,61.55
2023-06-19T04:23:02.119Z,60.65
2023-06-19T04:25:29.192Z,61.39
2023-06-19T04:27:57.147Z,62.13
2023-06-19T04:30:24.401Z,60.91
2023-06-19T04:32:51.562Z,60.68
2023-06-19T04:35:19.653Z,60.71
2023-06-19T04:40:13.350Z,60.64
2023-06-19T04:42:40.162Z,59.06
2023-06-19T04:45:10.823Z,60.01
2023-06-19T04:47:51.634Z,58.24
2023-06-19T04:50:19.867Z,58.61
2023-06-19T04:52:46.843Z,58.67
2023-06-19T04:55:13.704Z,59.07
2023-06-19T04:57:40.671Z,58.20
2023-06-19T05:00:08.313Z,58.50
2023-06-19T05:02:35.669Z,59.29
2023-06-19T05:05:04.663Z,59.07
2023-06-19T05:07:34.410Z,59.31
2023-06-19T05:10:01.433Z,60.01
2023-06-19T05:12:28.326Z,60.30
2023-06-19T05:14:55.243Z,59.27
2023-06-19T05:17:22.289Z,58.46
2023-06-19T05:19:49.742Z,59.29
2023-06-19T05:22:19.293Z,58.57
2023-06-19T05:24:46.283Z,58.69
2023-06-19T05:27:13.167Z,59.62
2023-06-19T05:29:40.149Z,58.54
2023-06-19T05:32:07.416Z,59.39
2023-06-19T05:34:34.366Z,56.81
2023-06-19T05:37:04.687Z,57.79
2023-06-19T05:39:31.698Z,55.53
2023-06-19T05:41:58.712Z,54.83
2023-06-19T05:44:25.554Z,54.57
2023-06-19T05:46:52.374Z,54.87
2023-06-19T05:49:19.363Z,55.13
2023-06-19T05:51:46.328Z,55.28
2023-06-19T05:54:13.150Z,55.05
2023-06-19T05:56:40.779Z,55.57
2023-06-19T05:59:07.606Z,55.53
2023-06-19T06:01:34.551Z,55.38
2023-06-19T06:04:02.838Z,54.97
2023-06-19T06:06:29.818Z,54.91
2023-06-19T06:08:56.848Z,54.69
2023-06-19T06:11:24.376Z,54.96
2023-06-19T06:13:51.404Z,54.09
2023-06-19T06:16:18.380Z,55.85
2023-06-19T06:18:46.688Z,55.40
2023-06-19T06:21:14.385Z,56.60
2023-06-19T06:23:46.349Z,56.08
2023-06-19T06:26:13.494Z,53.62
2023-06-19T06:28:40.750Z,52.60
2023-06-19T06:31:08.281Z,52.74
2023-06-19T06:33:35.315Z,52.06
2023-06-19T06:36:02.607Z,50.85
2023-06-19T06:38:29.556Z,51.16
2023-06-19T06:40:56.538Z,49.64
2023-06-19T06:43:23.422Z,50.72
2023-06-19T06:45:50.331Z,50.75
2023-06-19T06:48:18.034Z,52.13
2023-06-19T06:50:44.938Z,51.81
2023-06-19T06:53:11.861Z,50.59
2023-06-19T06:55:38.722Z,50.77
2023-06-19T06:58:06.481Z,49.97
2023-06-19T07:00:33.635Z,49.59
2023-06-19T07:03:00.865Z,51.10
2023-06-19T07:05:30.165Z,51.83
2023-06-19T07:07:57.156Z,51.96
2023-06-19T07:10:25.141Z,52.58
2023-06-19T07:12:52.648Z,52.64
2023-06-19T07:15:20.587Z,52.63
2023-06-19T07:17:48.380Z,51.43
2023-06-19T07:20:16.011Z,51.09
2023-06-19T07:22:43.998Z,49.25
2023-06-19T07:25:12.358Z,50.39
2023-06-19T07:27:41.578Z,49.96
2023-06-19T07:30:09.540Z,50.97
2023-06-19T07:32:36.464Z,50.54
2023-06-19T07:35:03.643Z,50.45
2023-06-19T07:37:30.535Z,51.25
2023-06-19T07:39:57.504Z,52.15
2023-06-19T07:42:25.043Z,52.54
2023-06-19T07:44:52.078Z,50.94
2023-06-19T07:47:19.887Z,51.73
2023-06-19T07:49:46.819Z,51.75
2023-06-19T07:52:14.728Z,52.37
2023-06-19T07:54:58.040Z,52.45
2023-06-19T07:57:26.703Z,50.55
2023-06-19T07:59:55.738Z,49.49
2023-06-19T08:02:22.910Z,50.67
2023-06-19T08:04:50.089Z,50.73
2023-06-19T08:07:17.569Z,51.51
2023-06-19T08:09:44.511Z,52.30
2023-06-19T08:12:11.440Z,52.50
2023-06-19T08:14:39.706Z,52.37
2023-06-19T08:17:07.402Z,51.56
2023-06-19T08:19:34.630Z,51.54
2023-06-19T08:22:01.483Z,51.28
2023-06-19T08:24:28.775Z,51.84
2023-06-19T08:26:55.695Z,50.96
2023-06-19T08:29:23.840Z,51.19
2023-06-19T08:31:51.002Z,52.94
2023-06-19T08:34:17.889Z,51.07
2023-06-19T08:36:44.939Z,50.96
2023-06-19T08:39:11.969Z,52.86
2023-06-19T08:41:39.708Z,52.05
2023-06-19T08:44:06.927Z,52.04
2023-06-19T08:46:35.552Z,52.76
2023-06-19T08:49:02.950Z,52.94
2023-06-19T08:51:33.695Z,53.85
2023-06-19T08:54:06.343Z,53.67
2023-06-19T08:56:35.447Z,52.57
2023-06-19T08:59:10.419Z,53.29
2023-06-19T09:01:38.015Z,52.50
2023-06-19T09:04:13.165Z,51.97
2023-06-19T09:07:08.631Z,53.42
2023-06-19T09:09:53.805Z,53.41
2023-06-19T09:12:20.747Z,52.97
2023-06-19T09:15:00.700Z,52.82
2023-06-19T09:17:28.085Z,52.96
2023-06-19T09:19:59.061Z,52.69
2023-06-19T09:22:26.501Z,51.25
2023-06-19T09:24:53.595Z,51.90
2023-06-19T09:27:21.109Z,51.70
2023-06-19T09:29:49.790Z,52.46
2023-06-19T09:32:23.393Z,52.94
2023-06-19T09:34:57.015Z,52.69
2023-06-19T09:37:29.068Z,52.39
2023-06-19T09:40:12.221Z,53.53
2023-06-19T09:42:41.336Z,52.53
2023-06-19T09:45:19.999Z,51.73
2023-06-19T09:47:50.363Z,52.07
2023-06-19T09:50:18.801Z,52.49
2023-06-19T09:52:52.656Z,49.55
2023-06-19T09:55:20.668Z,49.29
2023-06-19T09:57:49.735Z,49.11
2023-06-19T10:00:17.790Z,47.61
2023-06-19T10:02:46.605Z,47.27
2023-06-19T10:05:15.246Z,47.39
2023-06-19T10:07:45.638Z,46.00
2023-06-19T10:10:35.508Z,47.59
2023-06-19T10:13:16.886Z,44.00
2023-06-19T10:15:45.780Z,46.53
2023-06-19T10:18:21.868Z,46.35
2023-06-19T10:20:49.693Z,46.06
2023-06-19T10:23:22.581Z,45.99
2023-06-19T10:25:50.724Z,46.46
2023-06-19T10:28:29.131Z,45.21
2023-06-19T10:31:01.144Z,45.72
2023-06-19T10:33:35.804Z,45.16
2023-06-19T10:36:15.401Z,45.59
2023-06-19T10:38:44.619Z,45.32
2023-06-19T10:41:22.469Z,44.71
2023-06-19T10:43:58.401Z,44.46
2023-06-19T10:46:26.329Z,44.64
2023-06-19T10:48:57.752Z,42.74
2023-06-19T10:51:25.173Z,44.55
2023-06-19T10:53:55.261Z,44.33
2023-06-19T10:56:23.369Z,45.13
2023-06-19T10:59:01.093Z,43.54
2023-06-19T11:01:39.503Z,43.92
2023-06-19T11:04:11.625Z,44.19
2023-06-19T11:06:40.607Z,44.30
2023-06-19T11:09:09.245Z,43.49
2023-06-19T11:11:54.255Z,41.89
2023-06-19T11:14:21.144Z,43.27
2023-06-19T11:16:49.100Z,43.83
2023-06-19T11:19:31.563Z,42.80
2023-06-19T11:21:58.797Z,41.50
2023-06-19T11:24:25.938Z,42.15
2023-06-19T11:26:53.488Z,42.47
2023-06-19T11:29:26.122Z,42.75
2023-06-19T11:32:09.982Z,40.71
2023-06-19T11:34:40.885Z,40.46
2023-06-19T11:37:15.410Z,40.91
2023-06-19T11:39:45.452Z,41.04
2023-06-19T11:42:13.019Z,40.55
2023-06-19T11:45:04.906Z,41.97
2023-06-19T11:47:34.723Z,41.07
2023-06-19T11:50:01.824Z,41.81
2023-06-19T11:52:30.197Z,42.44
2023-06-19T11:54:58.164Z,41.13
2023-06-19T11:57:25.135Z,42.70
2023-06-19T11:59:52.025Z,41.67
2023-06-19T12:02:18.960Z,43.28
2023-06-19T12:04:46.100Z,42.69
2023-06-19T12:07:13.165Z,43.23
2023-06-19T12:09:40.557Z,43.22
2023-06-19T12:12:08.431Z,43.88
2023-06-19T12:14:35.451Z,43.00
2023-06-19T12:17:02.373Z,43.82
2023-06-19T12:19:29.356Z,44.35
2023-06-19T12:21:56.365Z,42.90
2023-06-19T12:24:23.454Z,45.45
2023-06-19T12:26:50.296Z,43.30
2023-06-19T12:29:17.129Z,42.22
2023-06-19T12:31:45.093Z,41.34
2023-06-19T12:34:28.638Z,42.27
2023-06-19T12:36:58.571Z,41.19
2023-06-19T12:39:26.196Z,41.37
2023-06-19T12:41:53.588Z,41.94
2023-06-19T12:44:23.050Z,43.45
2023-06-19T12:46:50.171Z,43.36
2023-06-19T12:49:17.293Z,40.78
2023-06-19T12:51:44.254Z,40.84
2023-06-19T12:54:11.124Z,40.42
2023-06-19T12:56:38.048Z,42.02
2023-06-19T12:59:04.995Z,42.00
2023-06-19T13:01:31.995Z,42.48
2023-06-19T13:03:58.884Z,43.24
2023-06-19T13:06:26.350Z,43.60
2023-06-19T13:08:53.352Z,41.48
2023-06-19T13:11:20.280Z,40.64
2023-06-19T13:13:47.215Z,41.61
2023-06-19T13:16:15.213Z,40.24
2023-06-19T13:18:42.278Z,40.34
2023-06-19T13:21:09.260Z,39.93
2023-06-19T13:23:36.200Z,39.81
2023-06-19T13:26:03.120Z,38.22
2023-06-19T13:28:30.084Z,40.06
2023-06-19T13:30:56.975Z,39.45
2023-06-19T13:33:23.845Z,37.68
2023-06-19T13:35:50.730Z,38.22
2023-06-19T13:38:18.399Z,37.90
2023-06-19T13:40:45.712Z,36.93
2023-06-19T13:43:12.791Z,38.45
2023-06-19T13:45:39.989Z,38.52
2023-06-19T13:48:07.774Z,36.35
2023-06-19T13:50:35.085Z,37.92
2023-06-19T13:53:03.081Z,38.89
2023-06-19T13:55:29.996Z,39.02
2023-06-19T13:57:56.899Z,39.10
2023-06-19T14:00:24.163Z,37.56
2023-06-19T14:02:51.410Z,38.65
2023-06-19T14:05:18.690Z,38.45
2023-06-19T14:07:46.072Z,40.41
2023-06-19T14:10:13.060Z,40.10
2023-06-19T14:12:39.948Z,39.82
2023-06-19T14:15:09.358Z,40.51
2023-06-19T14:17:36.529Z,40.83
2023-06-19T14:20:05.764Z,41.55
2023-06-19T14:22:33.024Z,41.98
2023-06-19T14:25:03.031Z,41.97
2023-06-19T14:27:30.469Z,43.18
2023-06-19T14:29:57.665Z,43.91
2023-06-19T14:32:25.269Z,42.75
2023-06-19T14:34:52.339Z,42.51
2023-06-19T14:37:19.408Z,43.20
2023-06-19T14:39:46.684Z,43.75
2023-06-19T14:42:13.657Z,43.11
2023-06-19T14:44:40.591Z,44.04
2023-06-19T14:47:08.026Z,45.52
2023-06-19T14:49:34.931Z,46.17
2023-06-19T14:52:02.067Z,46.50
2023-06-19T14:54:29.095Z,45.67
2023-06-19T14:56:55.961Z,46.48
2023-06-19T14:59:22.987Z,46.20
2023-06-19T15:01:49.952Z,47.15
2023-06-19T15:04:17.104Z,48.30
2023-06-19T15:06:44.157Z,48.10
2023-06-19T15:09:11.188Z,47.34
2023-06-19T15:11:38.120Z,48.18
2023-06-19T15:14:04.998Z,48.72
2023-06-19T15:16:31.905Z,48.68
2023-06-19T15:18:58.961Z,47.39
2023-06-19T15:21:25.835Z,48.05
2023-06-19T15:23:59.363Z,48.16
2023-06-19T15:26:26.881Z,50.50
2023-06-19T15:28:54.976Z,51.61
2023-06-19T15:31:25.172Z,50.97
2023-06-19T15:33:52.253Z,50.29
2023-06-19T15:36:20.279Z,49.56
2023-06-19T15:38:47.170Z,49.86
2023-06-19T15:41:14.398Z,49.75
2023-06-19T15:43:43.144Z,50.05
2023-06-19T15:46:10.352Z,49.72
2023-06-19T15:48:37.352Z,48.99
2023-06-19T15:51:04.613Z,48.10
2023-06-19T15:53:31.499Z,46.66
2023-06-19T15:55:59.326Z,47.84
2023-06-19T15:58:26.338Z,47.56
2023-06-19T16:00:54.293Z,47.90
2023-06-19T16:03:24.548Z,45.91
2023-06-19T16:08:29.151Z,48.66
2023-06-19T16:10:56.100Z,46.61
2023-06-19T16:13:23.080Z,45.92
2023-06-19T16:15:50.033Z,47.03
2023-06-19T16:18:16.931Z,48.08
2023-06-19T16:20:43.995Z,46.46
2023-06-19T16:23:10.873Z,47.05
2023-06-19T16:25:37.762Z,45.96
2023-06-19T16:28:04.822Z,46.04
2023-06-19T16:30:31.856Z,45.84
2023-06-19T16:32:58.773Z,46.22
2023-06-19T16:35:25.771Z,47.77
2023-06-19T16:37:57.197Z,45.97
2023-06-19T16:40:26.472Z,45.15
2023-06-19T16:42:53.981Z,44.45
2023-06-19T16:45:23.273Z,45.04
2023-06-19T16:47:50.305Z,44.55
2023-06-19T16:50:17.231Z,44.20
2023-06-19T16:52:44.649Z,44.70
2023-06-19T16:55:11.613Z,44.17
2023-06-19T16:57:38.525Z,42.99
2023-06-19T17:00:06.297Z,44.47
2023-06-19T17:02:33.326Z,44.09
2023-06-19T17:05:00.324Z,44.66
2023-06-19T17:07:27.224Z,47.17
2023-06-19T17:09:54.064Z,46.48
2023-06-19T17:12:20.912Z,45.85
2023-06-19T17:14:47.768Z,44.41
2023-06-19T17:17:14.587Z,44.87
2023-06-19T17:19:41.463Z,44.20
2023-06-19T17:22:08.313Z,44.29
2023-06-19T17:24:35.276Z,44.84
2023-06-19T17:27:02.249Z,45.09
2023-06-19T17:29:29.130Z,45.31
2023-06-19T17:31:57.923Z,45.41
2023-06-19T17:34:24.920Z,45.71
2023-06-19T17:36:51.997Z,45.34
2023-06-19T17:39:18.932Z,45.41
2023-06-19T17:41:45.891Z,44.72
2023-06-19T17:44:12.800Z,45.95
2023-06-19T17:46:39.866Z,44.64
2023-06-19T17:49:07.643Z,45.25
2023-06-19T17:51:35.078Z,45.45
2023-06-19T17:54:05.445Z,45.22
2023-06-19T17:56:33.181Z,45.23
2023-06-19T17:59:00.184Z,47.31
2023-06-19T18:01:27.122Z,46.31
2023-06-19T18:03:54.326Z,46.03
2023-06-19T18:06:22.180Z,46.53
2023-06-19T18:08:49.271Z,46.31
2023-06-19T18:11:16.288Z,47.01
2023-06-19T18:13:43.310Z,46.65
2023-06-19T18:16:12.419Z,45.77
2023-06-19T18:18:40.432Z,47.00
2023-06-19T18:21:07.434Z,47.46
2023-06-19T18:23:34.355Z,47.61
2023-06-19T18:26:01.411Z,48.78
2023-06-19T18:28:28.348Z,49.31
2023-06-19T18:30:55.276Z,51.32
2023-06-19T18:33:22.158Z,48.50
2023-06-19T18:35:49.028Z,49.76
2023-06-19T18:38:16.009Z,49.62
2023-06-19T18:40:43.119Z,50.40
2023-06-19T18:43:10.037Z,50.11
2023-06-19T18:45:37.463Z,51.28
2023-06-19T18:48:04.560Z,51.45
2023-06-19T18:50:31.757Z,51.66
2023-06-19T18:52:58.705Z,52.25
2023-06-19T18:55:25.916Z,51.85
2023-06-19T18:57:52.774Z,50.97
2023-06-19T19:00:21.045Z,51.21
2023-06-19T19:02:51.186Z,49.05
2023-06-19T19:05:18.357Z,48.85
2023-06-19T19:07:45.318Z,49.57
2023-06-19T19:10:12.366Z,48.66
2023-06-19T19:12:39.329Z,49.22
2023-06-19T19:15:07.100Z,48.92
2023-06-19T19:17:34.156Z,48.73
2023-06-19T19:20:04.829Z,49.52
2023-06-19T19:22:31.848Z,49.09
2023-06-19T19:24:58.820Z,49.76
2023-06-19T19:27:25.820Z,49.63
2023-06-19T19:29:52.914Z,49.59
2023-06-19T19:32:22.452Z,49.39
2023-06-19T19:34:49.562Z,49.57
2023-06-19T19:37:16.472Z,48.95
2023-06-19T19:39:43.386Z,48.29
2023-06-19T19:42:10.374Z,47.35
2023-06-19T19:44:37.326Z,49.14
2023-06-19T19:47:04.562Z,48.04
2023-06-19T19:49:31.648Z,48.38
2023-06-19T19:51:58.499Z,49.12
2023-06-19T19:54:25.369Z,50.00
2023-06-19T19:56:52.256Z,49.67
2023-06-19T19:59:19.092Z,48.16
2023-06-19T20:01:46.020Z,48.65
2023-06-19T20:04:15.117Z,48.64
2023-06-19T20:06:44.363Z,48.53
2023-06-19T20:09:11.572Z,48.72
2023-06-19T20:11:39.178Z,49.47
2023-06-19T20:14:06.103Z,49.41
2023-06-19T20:16:34.348Z,50.70
2023-06-19T20:19:01.591Z,50.73
2023-06-19T20:21:31.848Z,51.73
2023-06-19T20:23:58.803Z,51.66
2023-06-19T20:26:25.675Z,52.12
2023-06-19T20:28:52.569Z,52.90
2023-06-19T20:31:19.502Z,52.42
2023-06-19T20:33:46.402Z,52.32
2023-06-19T20:36:13.394Z,53.30
2023-06-19T20:38:40.268Z,52.72
2023-06-19T20:41:07.255Z,53.11
2023-06-19T20:43:34.192Z,53.22
2023-06-19T20:46:01.872Z,55.05
2023-06-19T20:48:29.853Z,55.05
2023-06-19T20:50:57.737Z,55.09
2023-06-19T20:53:24.686Z,54.50
2023-06-19T20:55:51.617Z,56.05
2023-06-19T20:58:18.550Z,56.28
2023-06-19T21:00:46.513Z,56.97
2023-06-19T21:03:13.649Z,56.41
2023-06-19T21:05:40.739Z,57.03
2023-06-19T21:08:08.579Z,56.86
2023-06-19T21:10:35.523Z,55.47
2023-06-19T21:13:20.915Z,56.26
2023-06-19T21:15:50.521Z,57.42
2023-06-19T21:18:18.764Z,56.77
2023-06-19T21:20:45.728Z,57.42
2023-06-19T21:23:12.679Z,58.18
2023-06-19T21:25:40.408Z,57.02
2023-06-19T21:28:07.353Z,58.13
2023-06-19T21:30:34.243Z,57.87
2023-06-19T21:33:01.541Z,57.53
2023-06-19T21:35:28.788Z,57.68
2023-06-19T21:37:55.756Z,58.65
2023-06-19T21:40:23.845Z,58.65
2023-06-19T21:42:51.138Z,58.70
2023-06-19T21:45:18.093Z,58.63
2023-06-19T21:47:45.664Z,58.55
2023-06-19T21:50:14.424Z,58.20
2023-06-19T21:52:42.680Z,58.59
2023-06-19T21:55:10.009Z,58.28
2023-06-19T21:57:53.895Z,57.26
2023-06-19T22:00:26.325Z,57.61
2023-06-19T22:02:53.652Z,57.83
2023-06-19T22:05:20.700Z,58.56
2023-06-19T22:07:47.623Z,59.13
2023-06-19T22:10:14.526Z,59.00
2023-06-19T22:12:41.580Z,59.73
2023-06-19T22:15:08.951Z,58.78
2023-06-19T22:17:35.787Z,59.36
2023-06-19T22:20:04.318Z,61.66
2023-06-19T22:22:31.276Z,63.20
2023-06-19T22:24:58.099Z,61.74
2023-06-19T22:27:24.953Z,62.46
2023-06-19T22:29:51.847Z,60.46
2023-06-19T22:32:20.153Z,61.42
2023-06-19T22:34:47.287Z,62.51
2023-06-19T22:37:15.210Z,64.24
2023-06-19T22:39:43.746Z,64.41
2023-06-19T22:42:10.605Z,63.95
2023-06-19T22:44:37.751Z,64.11
2023-06-19T22:47:04.841Z,64.85
2023-06-19T22:49:31.761Z,65.20
2023-06-19T22:51:58.627Z,65.49
2023-06-19T22:54:25.595Z,64.84
2023-06-19T22:56:52.608Z,65.05
2023-06-19T22:59:19.526Z,64.37
2023-06-19T23:01:46.567Z,64.79
2023-06-19T23:04:13.508Z,64.99
2023-06-19T23:06:43.583Z,64.33
2023-06-19T23:09:12.201Z,64.25
2023-06-19T23:11:39.445Z,64.51
2023-06-19T23:14:07.017Z,63.99
2023-06-19T23:16:34.041Z,64.17
2023-06-19T23:19:01.129Z,64.36
2023-06-19T23:21:31.497Z,64.98
2023-06-19T23:23:59.628Z,63.79
2023-06-19T23:26:26.733Z,64.59
2023-06-19T23:28:54.721Z,66.09
2023-06-19T23:31:24.911Z,65.17
2023-06-19T23:33:52.729Z,64.58
2023-06-19T23:36:19.758Z,64.19
2023-06-19T23:38:49.130Z,65.62
2023-06-19T23:41:15.982Z,65.69
2023-06-19T23:43:42.793Z,65.82
2023-06-19T23:46:09.773Z,64.92
2023-06-19T23:48:36.667Z,64.42
2023-06-19T23:51:04.551Z,64.65
2023-06-19T23:53:31.619Z,63.98
2023-06-19T23:55:58.449Z,64.84
2023-06-19T23:58:25.562Z,65.60
